Time;durP1;ratioP1;P1;durP2;ratioP2;P2;SDS_P1;SDS_P2;PMS_P1;PMS_P2;Temp;Humidity;BMP_temperature;BMP_pressure;BME280_temperature;BME280_humidity;BME280_pressure;Samples;Min_cycle;Max_cycle;Signal;HPM_P1;HPM_P2
2023/01/15 00:02:16;;;;;;;8.70;4.90;;;;;;;6.95;59.36;99377.51;110878;1257;21970;-74
2023/01/15 00:04:43;;;;;;;6.80;4.50;;;;;;;6.98;59.36;99375.31;110786;1258;21968;-74
2023/01/15 00:07:11;;;;;;;6.10;3.60;;;;;;;7.00;59.29;99375.04;110971;1257;22129;-75
2023/01/15 00:09:39;;;;;;;7.70;4.80;;;;;;;7.04;59.22;99369.55;110735;1257;21988;-75
2023/01/15 00:12:06;;;;;;;7.80;4.40;;;;;;;7.05;59.10;99366.75;110962;1257;21930;-75
2023/01/15 00:14:34;;;;;;;8.70;5.00;;;;;;;7.05;58.92;99362.08;110946;1254;22027;-76
2023/01/15 00:17:01;;;;;;;10.20;5.80;;;;;;;7.05;58.91;99360.52;110607;1257;22034;-74
2023/01/15 00:19:29;;;;;;;10.00;5.00;;;;;;;7.04;58.78;99356.92;110834;1258;21971;-74
2023/01/15 00:21:57;;;;;;;6.90;4.30;;;;;;;7.04;58.61;99345.51;110859;1257;22363;-75
2023/01/15 00:29:57;;;;;;;9.00;5.00;;;;;;;7.12;58.49;99322.34;110793;1258;21982;-74
2023/01/15 00:32:26;;;;;;;8.40;4.40;;;;;;;7.14;58.28;99324.51;111018;1258;21978;-74
2023/01/15 00:34:57;;;;;;;9.00;4.80;;;;;;;7.16;58.35;99313.18;110870;1258;21971;-75
2023/01/15 00:37:26;;;;;;;9.70;5.20;;;;;;;7.18;58.19;99304.97;111025;1258;21974;-74
2023/01/15 00:39:53;;;;;;;7.40;5.10;;;;;;;7.20;58.00;99302.31;110977;1258;21958;-75
2023/01/15 00:42:21;;;;;;;7.90;5.50;;;;;;;7.21;57.93;99291.88;111018;1256;23506;-75
2023/01/15 00:44:48;;;;;;;9.60;6.10;;;;;;;7.24;57.94;99290.38;110844;1257;22448;-74
2023/01/15 00:47:16;;;;;;;9.40;5.00;;;;;;;7.26;57.80;99298.42;110740;1257;22445;-74
2023/01/15 00:49:44;;;;;;;7.60;5.40;;;;;;;7.29;57.83;99308.70;111035;1257;21972;-74
2023/01/15 00:52:12;;;;;;;7.80;5.00;;;;;;;7.31;57.80;99310.49;110747;1257;22010;-74
2023/01/15 00:54:39;;;;;;;9.10;5.30;;;;;;;7.32;57.64;99314.63;110756;1257;22010;-73
2023/01/15 00:57:10;;;;;;;10.80;4.90;;;;;;;7.32;57.61;99319.14;110836;1257;22717;-74
2023/01/15 00:59:37;;;;;;;6.50;4.40;;;;;;;7.33;57.67;99323.60;110721;1258;21968;-76
2023/01/15 01:02:05;;;;;;;5.60;4.10;;;;;;;7.35;57.63;99330.25;110579;1258;21955;-74
2023/01/15 01:04:34;;;;;;;6.90;4.20;;;;;;;7.36;57.63;99330.21;110575;1258;21962;-75
2023/01/15 01:07:01;;;;;;;6.50;4.90;;;;;;;7.38;57.71;99328.56;110579;1258;21987;-74
2023/01/15 01:09:29;;;;;;;10.10;4.70;;;;;;;7.42;57.58;99324.77;110574;1255;21972;-74
2023/01/15 01:11:57;;;;;;;10.50;4.60;;;;;;;7.45;57.52;99321.37;110565;1258;23673;-75
2023/01/15 01:14:24;;;;;;;6.80;4.20;;;;;;;7.49;57.53;99312.55;110869;1257;21966;-75
2023/01/15 01:16:52;;;;;;;10.20;4.50;;;;;;;7.50;57.51;99291.70;110718;1258;21966;-74
2023/01/15 01:19:22;;;;;;;8.90;5.00;;;;;;;7.50;57.41;99282.88;110738;1258;21972;-74
2023/01/15 01:21:51;;;;;;;9.70;5.10;;;;;;;7.49;57.50;99276.55;110968;1257;22731;-74
2023/01/15 01:24:23;;;;;;;9.20;5.70;;;;;;;7.48;57.46;99268.77;110862;1257;21972;-75
2023/01/15 01:26:51;;;;;;;9.40;6.80;;;;;;;7.48;57.29;99263.44;110812;1257;23704;-75
2023/01/15 01:29:22;;;;;;;8.80;6.80;;;;;;;7.46;57.41;99259.70;110812;1256;22226;-74
2023/01/15 01:31:50;;;;;;;10.30;6.40;;;;;;;7.46;57.54;99261.77;110757;1258;21962;-76
2023/01/15 01:34:19;;;;;;;13.80;7.00;;;;;;;7.46;57.45;99256.55;111003;1254;21980;-75
2023/01/15 01:36:46;;;;;;;8.80;6.90;;;;;;;7.48;57.53;99251.14;110802;1257;21964;-75
2023/01/15 01:39:18;;;;;;;9.80;6.60;;;;;;;7.50;57.49;99248.60;110752;1247;23738;-74
2023/01/15 01:41:46;;;;;;;8.80;6.20;;;;;;;7.51;57.50;99244.61;110802;1257;21961;-74
2023/01/15 01:44:44;;;;;;;8.30;6.30;;;;;;;7.50;57.43;99247.40;111036;1256;24304;-75
2023/01/15 01:47:21;;;;;;;7.90;6.60;;;;;;;7.49;57.46;99258.55;110711;1256;23578;-75
2023/01/15 01:49:56;;;;;;;9.40;7.20;;;;;;;7.48;57.35;99265.86;110664;1257;21973;-75
2023/01/15 01:52:40;;;;;;;10.60;6.00;;;;;;;7.48;57.45;99257.73;110809;1257;21960;-74
2023/01/15 01:55:11;;;;;;;7.70;4.60;;;;;;;7.50;57.47;99245.16;110692;1249;22336;-75
2023/01/15 01:57:39;;;;;;;7.50;5.20;;;;;;;7.54;57.44;99234.09;111035;1256;21968;-75
2023/01/15 02:00:10;;;;;;;8.90;5.00;;;;;;;7.57;57.46;99224.77;110761;1258;23727;-75
2023/01/15 02:02:46;;;;;;;10.30;6.00;;;;;;;7.59;57.29;99219.14;110674;1258;21962;-75
2023/01/15 02:05:27;;;;;;;7.40;5.80;;;;;;;7.58;57.16;99207.26;110734;1258;21965;-74
2023/01/15 02:07:55;;;;;;;8.80;6.00;;;;;;;7.55;57.18;99204.79;110725;1258;21934;-76
2023/01/15 02:10:23;;;;;;;11.20;7.10;;;;;;;7.53;57.17;99203.85;110614;1258;21968;-75
2023/01/15 02:13:34;;;;;;;9.00;8.10;;;;;;;7.51;57.17;99201.83;110932;1257;23689;-75
2023/01/15 02:16:27;;;;;;;9.70;7.80;;;;;;;7.49;57.23;99190.86;110789;1257;21984;-74
2023/01/15 02:18:59;;;;;;;8.10;6.90;;;;;;;7.47;57.23;99185.92;110829;1256;21962;-74
2023/01/15 02:21:59;;;;;;;11.90;6.60;;;;;;;7.45;57.25;99189.60;110811;1257;22170;-74
2023/01/15 02:24:36;;;;;;;9.40;6.20;;;;;;;7.45;57.26;99191.34;110860;1258;22423;-75
2023/01/15 02:27:25;;;;;;;7.60;5.50;;;;;;;7.47;57.30;99194.21;110950;1258;23062;-73
2023/01/15 02:30:22;;;;;;;7.80;6.60;;;;;;;7.51;57.30;99193.88;110765;1257;22000;-75
2023/01/15 02:33:12;;;;;;;9.00;6.60;;;;;;;7.53;57.38;99191.20;110877;1257;23580;-74
2023/01/15 02:35:53;;;;;;;9.80;6.20;;;;;;;7.53;57.32;99187.90;110799;1257;22422;-75
2023/01/15 02:38:26;;;;;;;5.70;4.90;;;;;;;7.53;57.26;99191.02;110764;1257;23583;-74
2023/01/15 02:40:59;;;;;;;7.70;4.30;;;;;;;7.53;57.37;99187.89;110928;1258;21967;-74
2023/01/15 02:43:34;;;;;;;6.40;4.60;;;;;;;7.55;57.37;99181.58;110916;1258;23011;-75
2023/01/15 02:46:05;;;;;;;7.00;4.50;;;;;;;7.56;57.45;99177.38;110798;1258;23615;-75
2023/01/15 02:48:37;;;;;;;8.50;4.30;;;;;;;7.59;57.42;99169.81;110744;1258;22027;-74
2023/01/15 02:51:13;;;;;;;5.90;4.30;;;;;;;7.61;57.39;99154.80;110781;1257;21971;-74
2023/01/15 02:53:47;;;;;;;7.50;4.50;;;;;;;7.62;57.36;99148.18;110654;1258;23632;-74
2023/01/15 02:56:24;;;;;;;6.30;4.70;;;;;;;7.64;57.36;99141.01;110612;1258;21989;-75
2023/01/15 02:58:58;;;;;;;5.90;4.70;;;;;;;7.63;57.44;99140.54;110640;1259;21983;-75
2023/01/15 03:01:39;;;;;;;6.80;5.00;;;;;;;7.61;57.44;99143.05;110806;1258;22733;-74
2023/01/15 03:04:16;;;;;;;9.10;5.60;;;;;;;7.61;57.51;99140.31;110766;1258;23605;-75
2023/01/15 03:07:05;;;;;;;7.10;4.80;;;;;;;7.60;57.64;99137.02;110540;1258;21961;-74
2023/01/15 03:09:35;;;;;;;7.10;4.70;;;;;;;7.59;57.66;99141.38;110639;1257;21972;-73
2023/01/15 03:12:26;;;;;;;6.20;4.30;;;;;;;7.62;57.79;99136.09;110794;1258;21956;-74
2023/01/15 03:15:11;;;;;;;6.20;4.40;;;;;;;7.66;57.75;99130.90;110762;1258;23696;-74
2023/01/15 03:17:54;;;;;;;5.80;5.20;;;;;;;7.69;57.95;99127.98;110813;1258;24311;-75
2023/01/15 03:20:28;;;;;;;7.40;6.20;;;;;;;7.68;57.84;99114.69;110849;1258;21998;-75
2023/01/15 03:23:08;;;;;;;8.80;6.30;;;;;;;7.65;57.95;99111.35;111042;1254;22573;-76
2023/01/15 03:25:45;;;;;;;6.40;5.60;;;;;;;7.61;57.94;99118.79;110856;1258;22400;-76
2023/01/15 03:28:16;;;;;;;8.30;6.50;;;;;;;7.58;58.01;99120.16;111039;1258;23609;-75
2023/01/15 03:30:44;;;;;;;8.70;7.80;;;;;;;7.54;58.06;99126.73;110850;1258;23682;-75
2023/01/15 03:33:14;;;;;;;10.10;7.00;;;;;;;7.50;58.08;99122.92;110750;1258;22444;-76
2023/01/15 03:35:51;;;;;;;10.70;7.60;;;;;;;7.49;58.24;99102.39;110792;1258;22804;-76
2023/01/15 03:38:35;;;;;;;6.80;5.80;;;;;;;7.48;58.46;99108.30;110885;1244;22015;-75
2023/01/15 03:41:28;;;;;;;6.10;5.10;;;;;;;7.47;58.63;99108.71;110716;1258;23593;-75
2023/01/15 03:44:11;;;;;;;8.40;6.20;;;;;;;7.45;58.90;99097.37;110958;1258;23099;-75
2023/01/15 03:47:08;;;;;;;7.10;5.40;;;;;;;7.46;59.00;99092.32;110831;1257;23615;-74
2023/01/15 03:50:16;;;;;;;5.40;4.70;;;;;;;7.47;59.07;99089.86;110841;1258;22942;-75
2023/01/15 03:53:02;;;;;;;7.90;6.10;;;;;;;7.44;59.16;99085.48;110371;1260;24294;-75
2023/01/15 03:55:40;;;;;;;8.70;5.70;;;;;;;7.45;59.40;99081.95;110260;1264;21972;-75
2023/01/15 03:58:52;;;;;;;6.70;4.50;;;;;;;7.50;59.61;99078.62;110472;1264;23827;-74
2023/01/15 04:01:32;;;;;;;7.10;4.60;;;;;;;7.52;59.86;99072.13;110234;1260;21981;-75
2023/01/15 04:04:02;;;;;;;7.10;4.60;;;;;;;7.56;59.89;99073.49;110257;1264;21964;-75
2023/01/15 04:06:34;;;;;;;4.90;3.90;;;;;;;7.62;60.02;99072.55;110055;1264;22010;-75
2023/01/15 04:09:07;;;;;;;6.80;3.90;;;;;;;7.65;60.02;99073.08;109786;1264;21983;-74
2023/01/15 04:11:36;;;;;;;5.90;4.10;;;;;;;7.67;60.08;99070.55;110274;1259;23087;-75
2023/01/15 04:14:06;;;;;;;6.20;4.10;;;;;;;7.70;60.08;99070.26;110435;1264;23616;-74
2023/01/15 04:16:42;;;;;;;6.20;4.70;;;;;;;7.73;60.32;99069.27;110286;1260;21977;-74
2023/01/15 04:19:11;;;;;;;7.10;4.80;;;;;;;7.77;60.30;99074.80;110221;1264;24315;-73
2023/01/15 04:21:46;;;;;;;5.90;4.40;;;;;;;7.82;60.30;99072.30;110049;1265;21996;-75
2023/01/15 04:24:13;;;;;;;7.30;5.20;;;;;;;7.88;60.50;99066.99;110102;1265;24404;-76
2023/01/15 04:26:41;;;;;;;6.50;4.90;;;;;;;7.93;60.39;99057.42;110220;1264;21982;-74
2023/01/15 04:29:09;;;;;;;8.90;5.00;;;;;;;7.96;60.48;99049.84;110546;1258;23700;-74
2023/01/15 04:31:36;;;;;;;6.70;5.10;;;;;;;7.99;60.62;99048.45;110980;1257;21985;-74
2023/01/15 04:34:04;;;;;;;7.90;5.30;;;;;;;7.99;60.87;99043.09;110971;1257;23097;-75
2023/01/15 04:36:34;;;;;;;8.60;5.00;;;;;;;7.99;60.91;99036.51;110808;1257;22421;-74
2023/01/15 04:39:04;;;;;;;4.90;4.10;;;;;;;8.01;61.16;99036.26;110810;1258;22161;-76
2023/01/15 04:44:18;;;;;;;4.80;3.90;;;;;;;8.05;61.10;99039.84;110931;1254;23114;-75
2023/01/15 04:46:46;;;;;;;5.40;4.20;;;;;;;8.09;61.16;99040.55;111028;1257;21970;-75
2023/01/15 04:49:16;;;;;;;4.50;4.10;;;;;;;8.13;61.21;99038.08;110864;1247;21957;-75
2023/01/15 04:51:44;;;;;;;5.50;4.10;;;;;;;8.14;61.13;99028.84;110639;1257;22885;-75
2023/01/15 04:54:14;;;;;;;7.50;4.90;;;;;;;8.14;61.17;99028.85;110980;1257;21966;-76
2023/01/15 04:56:49;;;;;;;9.00;7.30;;;;;;;8.12;61.15;99023.58;110807;1257;23583;-75
2023/01/15 04:59:21;;;;;;;13.70;7.80;;;;;;;8.12;61.12;99018.73;110799;1257;21970;-75
2023/01/15 05:01:49;;;;;;;;;;;;;;;8.12;61.08;99014.23;110861;1257;21945;-76
2023/01/15 05:04:31;;;;;;;29.20;17.40;;;;;;;8.00;61.46;99011.84;110812;1254;21976;-76
2023/01/15 05:07:04;;;;;;;14.80;10.30;;;;;;;7.99;61.59;99008.61;110928;1257;21961;-77
2023/01/15 05:09:32;;;;;;;11.40;9.70;;;;;;;8.00;61.56;99005.95;110881;1257;22233;-75
2023/01/15 05:11:59;;;;;;;11.80;9.60;;;;;;;8.02;61.83;99001.89;110629;1257;22037;-76
2023/01/15 05:14:27;;;;;;;20.80;15.50;;;;;;;8.03;61.95;98998.73;110843;1257;22932;-76
2023/01/15 05:16:55;;;;;;;36.20;26.70;;;;;;;8.03;61.92;98996.98;110798;1255;23040;-75
2023/01/15 05:19:22;;;;;;;12.70;10.80;;;;;;;8.04;62.19;98992.27;110533;1262;22001;-76
2023/01/15 05:21:50;;;;;;;8.10;5.90;;;;;;;8.06;62.27;98990.09;110524;1262;21966;-75
2023/01/15 05:24:18;;;;;;;6.20;4.60;;;;;;;8.05;62.60;98983.03;110514;1262;23027;-76
2023/01/15 05:26:45;;;;;;;6.50;4.70;;;;;;;8.02;62.87;98975.20;110539;1262;23745;-76
2023/01/15 05:29:13;;;;;;;4.90;3.90;;;;;;;8.03;63.15;98970.65;110585;1262;23707;-75
2023/01/15 05:31:43;;;;;;;4.20;3.80;;;;;;;8.06;63.29;98971.92;110467;1262;21968;-76
2023/01/15 05:34:12;;;;;;;4.10;3.60;;;;;;;8.09;63.38;98968.98;110517;1260;21888;-76
2023/01/15 05:36:40;;;;;;;4.90;4.40;;;;;;;8.11;63.74;98960.40;110393;1259;21967;-77
2023/01/15 05:39:07;;;;;;;5.50;4.50;;;;;;;8.12;63.67;98959.47;110830;1257;22711;-77
2023/01/15 05:41:50;;;;;;;5.10;4.20;;;;;;;8.13;63.82;98963.22;110757;1259;21947;-75
2023/01/15 05:44:21;;;;;;;6.70;4.70;;;;;;;8.15;64.03;98963.45;110652;1257;21972;-77
2023/01/15 05:46:53;;;;;;;6.20;4.30;;;;;;;8.18;64.01;98962.62;110746;1258;21966;-76
2023/01/15 05:49:25;;;;;;;5.40;4.70;;;;;;;8.21;64.14;98966.98;110812;1257;24291;-75
2023/01/15 05:51:54;;;;;;;5.10;4.10;;;;;;;8.22;64.20;98968.50;110582;1257;22550;-75
2023/01/15 05:54:28;;;;;;;5.00;3.90;;;;;;;8.24;64.41;98970.67;110770;1257;22163;-75
2023/01/15 05:56:56;;;;;;;4.10;3.50;;;;;;;8.28;64.39;98968.73;110994;1256;21989;-75
2023/01/15 05:59:27;;;;;;;6.30;4.50;;;;;;;8.31;64.31;98965.14;110599;1257;22017;-75
2023/01/15 06:01:55;;;;;;;5.10;3.70;;;;;;;8.33;64.39;98964.29;110869;1256;21965;-76
2023/01/15 06:04:24;;;;;;;5.20;4.20;;;;;;;8.39;64.43;98963.67;110917;1257;23110;-74
2023/01/15 06:06:54;;;;;;;4.70;3.80;;;;;;;8.44;64.50;98961.36;110902;1257;22760;-76
2023/01/15 06:09:23;;;;;;;6.00;4.30;;;;;;;8.42;64.51;98965.63;110865;1257;23587;-74
2023/01/15 06:11:52;;;;;;;6.10;4.50;;;;;;;8.40;64.69;98969.33;110712;1258;23686;-76
2023/01/15 06:14:20;;;;;;;5.60;4.60;;;;;;;8.40;64.80;98967.63;110712;1258;21960;-78
2023/01/15 06:16:48;;;;;;;7.20;4.40;;;;;;;8.39;64.80;98969.03;110834;1258;23413;-76
2023/01/15 06:19:15;;;;;;;5.60;4.40;;;;;;;8.40;64.99;98972.13;111022;1256;23740;-76
2023/01/15 06:21:43;;;;;;;5.10;4.00;;;;;;;8.40;65.14;98974.19;110758;1257;24304;-76
2023/01/15 06:24:11;;;;;;;5.10;4.30;;;;;;;8.40;65.28;98971.77;110812;1256;23710;-76
2023/01/15 06:26:38;;;;;;;6.30;4.10;;;;;;;8.39;65.37;98967.15;110834;1257;21967;-75
2023/01/15 06:29:06;;;;;;;5.40;4.10;;;;;;;8.36;65.52;98969.21;110902;1255;21973;-75
2023/01/15 06:31:34;;;;;;;5.20;3.60;;;;;;;8.31;65.76;98968.55;110991;1257;21980;-75
2023/01/15 06:34:02;;;;;;;4.50;3.50;;;;;;;8.30;66.00;98966.20;110747;1258;23571;-76
2023/01/15 06:36:29;;;;;;;4.00;3.20;;;;;;;8.28;66.52;98967.36;110711;1258;22464;-75
2023/01/15 06:38:57;;;;;;;4.70;3.60;;;;;;;8.23;66.78;98968.13;110727;1256;23019;-76
2023/01/15 06:47:19;;;;;;;5.60;4.40;;;;;;;8.10;67.73;98967.89;110368;1263;22001;-75
2023/01/15 06:49:54;;;;;;;5.70;4.00;;;;;;;8.05;67.90;98964.51;110290;1261;22204;-75
2023/01/15 06:52:24;;;;;;;4.30;3.70;;;;;;;8.05;68.23;98966.42;110522;1261;23704;-75
2023/01/15 06:54:53;;;;;;;5.20;4.60;;;;;;;8.08;68.24;98965.89;110564;1262;21962;-76
2023/01/15 06:57:21;;;;;;;5.80;5.00;;;;;;;8.10;68.62;98967.91;110369;1262;21968;-75
2023/01/15 06:59:49;;;;;;;7.70;4.70;;;;;;;8.06;68.77;98970.33;110558;1260;23634;-76
2023/01/15 07:02:17;;;;;;;4.50;3.50;;;;;;;8.07;68.85;98970.10;110510;1256;21968;-75
2023/01/15 07:04:46;;;;;;;5.60;3.30;;;;;;;8.07;69.25;98966.10;110947;1257;22001;-76
2023/01/15 07:07:19;;;;;;;4.30;3.40;;;;;;;8.07;69.36;98963.36;110795;1257;23505;-76
2023/01/15 07:09:48;;;;;;;5.10;3.50;;;;;;;8.07;69.51;98962.85;110901;1257;22839;-75
2023/01/15 07:12:16;;;;;;;4.10;3.70;;;;;;;8.07;70.00;98965.96;110922;1257;22004;-75
2023/01/15 07:14:44;;;;;;;6.70;4.00;;;;;;;8.09;69.78;98962.06;110836;1257;22892;-75
2023/01/15 07:17:12;;;;;;;6.50;4.30;;;;;;;8.10;69.83;98960.63;111059;1257;22423;-75
2023/01/15 07:19:40;;;;;;;5.30;4.30;;;;;;;8.10;70.03;98955.26;111068;1254;21959;-76
2023/01/15 07:22:09;;;;;;;6.70;5.40;;;;;;;8.11;70.25;98957.98;110900;1256;23618;-75
2023/01/15 07:24:37;;;;;;;8.10;6.30;;;;;;;8.10;70.36;98955.26;111110;1256;21972;-75
2023/01/15 07:27:05;;;;;;;8.10;6.50;;;;;;;8.09;70.42;98956.13;110821;1257;21964;-76
2023/01/15 07:29:33;;;;;;;8.60;6.50;;;;;;;8.10;70.71;98951.27;110794;1257;21961;-75
2023/01/15 07:32:01;;;;;;;7.60;5.70;;;;;;;8.09;70.93;98950.45;110855;1257;23682;-78
2023/01/15 07:34:28;;;;;;;5.40;4.70;;;;;;;8.07;71.03;98946.73;110824;1257;21978;-76
2023/01/15 07:36:56;;;;;;;7.60;5.20;;;;;;;8.04;71.35;98948.42;111002;1257;24284;-76
2023/01/15 07:39:24;;;;;;;7.20;5.70;;;;;;;8.02;71.54;98949.36;110792;1257;22014;-76
2023/01/15 07:50:17;;;;;;;7.50;6.00;;;;;;;8.04;71.88;98944.45;110983;1257;23715;-77
2023/01/15 07:52:45;;;;;;;6.40;4.00;;;;;;;8.07;71.82;98938.06;110580;1257;21973;-77
2023/01/15 07:55:13;;;;;;;5.60;4.40;;;;;;;8.07;71.88;98942.74;110899;1257;22727;-76
2023/01/15 07:57:42;;;;;;;4.60;4.10;;;;;;;8.10;71.81;98938.77;110637;1257;23742;-74
2023/01/15 08:00:21;;;;;;;9.20;5.80;;;;;;;8.13;71.92;98938.65;110578;1252;23019;-75
2023/01/15 08:02:49;;;;;;;12.50;7.00;;;;;;;8.16;71.95;98934.65;110871;1257;23608;-75
2023/01/15 08:05:18;;;;;;;11.00;8.40;;;;;;;8.19;71.99;98931.73;110829;1257;24283;-75
2023/01/15 08:07:46;;;;;;;8.20;6.40;;;;;;;8.21;71.87;98929.20;110863;1257;23023;-76
2023/01/15 08:10:14;;;;;;;9.60;7.50;;;;;;;8.26;71.78;98929.14;110808;1257;23019;-77
2023/01/15 08:15:36;;;;;;;5.50;4.30;;;;;;;8.25;71.42;98929.70;110869;1257;23014;-76
2023/01/15 08:18:04;;;;;;;6.50;4.90;;;;;;;8.20;71.56;98927.16;110224;1265;23092;-77
2023/01/15 08:20:34;;;;;;;6.60;5.80;;;;;;;8.20;71.62;98925.09;110213;1265;21975;-77
2023/01/15 08:23:02;;;;;;;5.90;4.60;;;;;;;8.21;71.56;98927.64;110345;1264;24297;-76
2023/01/15 08:25:29;;;;;;;6.50;4.50;;;;;;;8.19;71.58;98926.02;110307;1264;22094;-76
2023/01/15 08:28:01;;;;;;;5.00;4.50;;;;;;;8.20;71.46;98930.48;110504;1262;21971;-75
2023/01/15 08:30:29;;;;;;;;;;;;;;;8.19;71.34;98934.00;110279;1264;22046;-75
2023/01/15 08:33:02;;;;;;;7.40;5.20;;;;;;;8.08;71.41;98936.27;110359;1264;24743;-76
2023/01/15 08:35:30;;;;;;;8.10;5.40;;;;;;;8.01;71.21;98933.66;110363;1257;21962;-76
2023/01/15 08:37:58;;;;;;;5.90;4.10;;;;;;;8.02;71.21;98936.58;110861;1258;22035;-77
2023/01/15 08:40:26;;;;;;;7.30;6.20;;;;;;;8.01;70.90;98932.45;111020;1256;21964;-77
2023/01/15 08:42:53;;;;;;;7.80;5.40;;;;;;;8.00;70.75;98928.03;110989;1257;21972;-77
2023/01/15 08:45:23;;;;;;;8.90;6.60;;;;;;;7.95;70.46;98932.92;110832;1257;21995;-80
2023/01/15 08:47:55;;;;;;;10.20;6.60;;;;;;;7.93;70.40;98934.05;110840;1257;23718;-77
2023/01/15 08:50:23;;;;;;;;;;;;;;;7.93;70.40;98933.73;111093;1257;23571;-78
2023/01/15 08:52:50;;;;;;;17.40;11.20;;;;;;;7.86;70.41;98939.59;110868;1257;23745;-78
2023/01/15 08:55:18;;;;;;;9.70;7.30;;;;;;;7.86;70.21;98940.13;110586;1258;22736;-75
2023/01/15 08:57:45;;;;;;;7.80;7.00;;;;;;;7.89;70.14;98933.95;110115;1265;21968;-77
2023/01/15 09:00:14;;;;;;;9.20;7.30;;;;;;;7.92;69.89;98934.11;110207;1265;21994;-76
2023/01/15 09:02:44;;;;;;;21.90;15.70;;;;;;;7.94;69.65;98930.90;110276;1264;21935;-76
2023/01/15 09:05:11;;;;;;;12.50;10.10;;;;;;;7.96;69.42;98929.76;110396;1264;21949;-76
2023/01/15 09:07:39;;;;;;;9.60;8.10;;;;;;;7.99;69.20;98932.20;110224;1264;21990;-76
2023/01/15 09:10:08;;;;;;;9.20;7.60;;;;;;;8.02;68.89;98927.23;110505;1260;21979;-78
2023/01/15 09:12:35;;;;;;;8.80;7.10;;;;;;;8.05;68.66;98923.78;110506;1264;22068;-75
2023/01/15 09:15:04;;;;;;;8.00;6.40;;;;;;;8.08;68.52;98922.06;110339;1258;23631;-76
2023/01/15 09:17:32;;;;;;;8.30;6.90;;;;;;;8.08;67.88;98916.70;110626;1258;24333;-79
2023/01/15 09:20:00;;;;;;;8.80;7.80;;;;;;;8.10;68.04;98916.93;110763;1258;23599;-78
2023/01/15 09:22:29;;;;;;;11.80;8.80;;;;;;;8.16;68.13;98917.48;110754;1258;21973;-75
2023/01/15 09:24:58;;;;;;;15.20;11.40;;;;;;;8.21;67.87;98914.63;110832;1257;21972;-76
2023/01/15 09:27:27;;;;;;;11.90;9.60;;;;;;;8.23;67.72;98917.49;110815;1257;23704;-76
2023/01/15 09:29:55;;;;;;;14.70;11.90;;;;;;;8.21;67.51;98917.43;111005;1257;23017;-75
2023/01/15 09:32:23;;;;;;;16.80;12.20;;;;;;;8.18;67.48;98915.67;110861;1257;21981;-76
2023/01/15 09:34:51;;;;;;;20.20;14.70;;;;;;;8.11;67.35;98910.31;111042;1257;21999;-75
2023/01/15 09:37:18;;;;;;;16.00;12.90;;;;;;;8.06;67.36;98906.41;110812;1257;23608;-76
2023/01/15 09:39:46;;;;;;;19.50;13.10;;;;;;;8.05;67.48;98908.21;110773;1257;22171;-77
2023/01/15 09:42:25;;;;;;;14.80;11.00;;;;;;;7.98;67.44;98905.39;110838;1257;22346;-76
2023/01/15 09:45:20;;;;;;;15.50;11.60;;;;;;;7.93;67.34;98905.15;110823;1258;21942;-77
2023/01/15 09:48:16;;;;;;;13.60;10.60;;;;;;;7.89;67.64;98896.15;110942;1244;23759;-79
2023/01/15 09:51:09;;;;;;;15.90;11.80;;;;;;;7.89;67.54;98891.19;109981;1257;21969;-79
2023/01/15 09:54:01;;;;;;;15.00;11.30;;;;;;;7.85;67.33;98890.64;111141;1257;21972;-75
2023/01/15 09:56:32;;;;;;;12.90;10.40;;;;;;;7.85;67.34;98884.09;110699;1258;21975;-75
2023/01/15 09:59:17;;;;;;;14.20;10.90;;;;;;;7.87;67.44;98887.27;110859;1257;21965;-74
2023/01/15 10:01:46;;;;;;;14.70;11.20;;;;;;;7.92;67.32;98894.13;111007;1257;21973;-74
2023/01/15 10:04:36;;;;;;;14.40;11.60;;;;;;;7.97;67.18;98897.33;110816;1257;21964;-78
2023/01/15 10:07:23;;;;;;;9.30;8.40;;;;;;;8.00;66.94;98896.46;110921;1257;21964;-76
2023/01/15 10:10:03;;;;;;;15.20;10.90;;;;;;;7.93;66.32;98891.83;110851;1257;21966;-77
2023/01/15 10:12:34;;;;;;;14.90;12.00;;;;;;;7.85;66.35;98892.37;110879;1257;24322;-75
2023/01/15 10:15:39;;;;;;;13.30;11.30;;;;;;;7.84;66.37;98886.71;110764;1257;24114;-78
2023/01/15 10:18:18;;;;;;;14.60;11.00;;;;;;;7.83;66.36;98882.61;111250;1257;22007;-79
2023/01/15 10:21:26;;;;;;;16.50;13.30;;;;;;;7.86;66.47;98881.23;110978;1257;23017;-75
2023/01/15 10:24:38;;;;;;;15.90;10.90;;;;;;;7.87;66.31;98885.55;110998;1257;23608;-75
2023/01/15 10:27:19;;;;;;;14.60;10.70;;;;;;;7.83;66.13;98883.66;110948;1257;23717;-76
2023/01/15 10:30:16;;;;;;;26.50;19.70;;;;;;;7.82;66.19;98884.90;110956;1257;23091;-77
2023/01/15 10:32:55;;;;;;;31.50;22.40;;;;;;;7.85;66.12;98888.23;110829;1257;21975;-77
2023/01/15 10:35:32;;;;;;;22.60;16.90;;;;;;;7.90;66.17;98885.54;110897;1257;23583;-77
2023/01/15 10:38:22;;;;;;;32.40;24.60;;;;;;;7.94;65.92;98880.34;111060;1258;21955;-75
2023/01/15 10:40:52;;;;;;;23.90;18.90;;;;;;;7.94;65.87;98877.73;110966;1257;21984;-75
2023/01/15 10:43:39;;;;;;;14.10;11.00;;;;;;;7.96;65.88;98874.34;110967;1257;22924;-78
2023/01/15 10:46:26;;;;;;;15.90;12.30;;;;;;;8.00;65.88;98872.08;110917;1257;21969;-75
2023/01/15 10:49:03;;;;;;;17.90;15.00;;;;;;;8.05;65.80;98868.33;110865;1257;23689;-78
2023/01/15 10:51:52;;;;;;;18.90;13.10;;;;;;;8.09;65.70;98863.45;111213;1256;21977;-76
2023/01/15 10:54:52;;;;;;;22.90;15.70;;;;;;;8.11;65.37;98863.52;110884;1257;22734;-78
2023/01/15 10:57:44;;;;;;;17.90;15.50;;;;;;;8.14;65.35;98867.00;110874;1256;22800;-75
2023/01/15 11:00:13;;;;;;;21.60;18.00;;;;;;;8.12;64.95;98862.77;111149;1253;21969;-75
2023/01/15 11:03:01;;;;;;;16.50;12.40;;;;;;;8.09;65.12;98859.96;110984;1256;21976;-74
2023/01/15 11:05:32;;;;;;;32.30;23.40;;;;;;;8.13;65.26;98866.20;110832;1258;21972;-76
2023/01/15 11:08:06;;;;;;;20.10;14.20;;;;;;;8.16;64.82;98868.80;110743;1258;23773;-78
2023/01/15 11:10:57;;;;;;;26.30;18.90;;;;;;;8.11;64.62;98868.38;111060;1258;22279;-76
2023/01/15 11:19:36;;;;;;;20.80;15.60;;;;;;;8.18;64.81;98858.84;110643;1257;21982;-80
2023/01/15 11:22:15;;;;;;;24.00;18.00;;;;;;;8.18;64.50;98860.41;110954;1256;22020;-79
2023/01/15 11:25:02;;;;;;;31.50;24.50;;;;;;;8.18;64.41;98854.17;110928;1256;21962;-77
2023/01/15 11:27:33;;;;;;;20.90;16.60;;;;;;;8.18;64.29;98856.55;111014;1256;21986;-77
2023/01/15 11:30:04;;;;;;;20.20;12.80;;;;;;;8.23;64.45;98854.58;110748;1257;21987;-78
2023/01/15 11:32:37;;;;;;;17.80;12.80;;;;;;;8.29;64.35;98861.73;110987;1257;21997;-77
2023/01/15 11:35:15;;;;;;;22.30;15.70;;;;;;;8.32;64.09;98862.13;111037;1257;21966;-79
2023/01/15 11:37:43;;;;;;;22.50;16.70;;;;;;;8.33;63.99;98859.99;110921;1257;23008;-78
2023/01/15 11:40:23;;;;;;;19.70;14.10;;;;;;;8.31;63.76;98859.92;110681;1257;21968;-79
2023/01/15 11:51:51;;;;;;;19.20;13.70;;;;;;;8.31;63.40;98858.86;110897;1256;21971;-77
2023/01/15 11:54:19;;;;;;;16.20;11.20;;;;;;;8.37;63.36;98858.73;110977;1258;23146;-79
2023/01/15 11:56:47;;;;;;;10.30;8.70;;;;;;;8.44;63.10;98869.98;111305;1257;23000;-78
2023/01/15 11:59:18;;;;;;;13.80;10.60;;;;;;;8.47;62.87;98870.05;111014;1257;21973;-80
2023/01/15 12:02:03;;;;;;;21.80;15.50;;;;;;;8.50;62.86;98875.05;110895;1257;21982;-79
2023/01/15 12:04:51;;;;;;;16.00;12.70;;;;;;;8.52;62.61;98870.10;110872;1257;22398;-80
2023/01/15 12:07:23;;;;;;;12.60;9.60;;;;;;;8.51;62.35;98865.99;111056;1257;23037;-77
2023/01/15 12:10:15;;;;;;;14.90;12.00;;;;;;;8.52;62.40;98878.39;111065;1256;23017;-79
2023/01/15 12:13:20;;;;;;;16.50;13.00;;;;;;;8.57;62.50;98878.17;111186;1257;23618;-80
2023/01/15 12:16:36;;;;;;;18.20;13.70;;;;;;;8.59;62.31;98880.12;111112;1257;22718;-82
2023/01/15 12:19:31;;;;;;;24.90;16.90;;;;;;;8.61;62.26;98883.30;110934;1255;23731;-81
2023/01/15 12:22:23;;;;;;;29.80;22.80;;;;;;;8.66;62.16;98891.89;110725;1257;22269;-78
2023/01/15 12:25:03;;;;;;;22.60;18.00;;;;;;;8.70;62.06;98890.50;111169;1257;21968;-79
2023/01/15 12:28:15;;;;;;;20.60;17.10;;;;;;;8.72;61.99;98894.39;111089;1256;23010;-77
2023/01/15 12:31:28;;;;;;;19.80;15.80;;;;;;;8.71;61.92;98900.13;111219;1257;21997;-81
2023/01/15 12:34:19;;;;;;;14.30;12.00;;;;;;;8.77;62.21;98902.59;111081;1257;21954;-78
2023/01/15 12:37:20;;;;;;;16.30;13.60;;;;;;;8.87;62.05;98914.37;110646;1257;22000;-79
2023/01/15 12:40:43;;;;;;;10.30;8.60;;;;;;;8.89;61.80;98915.14;110488;1252;23133;-79
2023/01/15 12:46:28;;;;;;;20.70;13.70;;;;;;;8.82;61.47;98930.76;110154;1265;22149;-77
2023/01/15 12:49:13;;;;;;;20.60;15.00;;;;;;;8.77;61.38;98941.61;110237;1265;22336;-78